sensor_id;sensor_type;location;lat;lon;timestamp;P1;durP1;ratioP1;P2;durP2;ratioP2
17369;SDS011;8802;52.402;4.920;2023-05-10T00:01:26;23.05;;;20.85;;
17369;SDS011;8802;52.402;4.920;2023-05-10T00:03:53;22.00;;;19.95;;
17369;SDS011;8802;52.402;4.920;2023-05-10T00:06:20;21.85;;;19.75;;
17369;SDS011;8802;52.402;4.920;2023-05-10T00:08:47;21.80;;;19.88;;
17369;SDS011;8802;52.402;4.920;2023-05-10T00:11:13;24.40;;;21.83;;
17369;SDS011;8802;52.402;4.920;2023-05-10T00:13:42;24.17;;;21.80;;
17369;SDS011;8802;52.402;4.920;2023-05-10T00:16:08;25.35;;;22.95;;
17369;SDS011;8802;52.402;4.920;2023-05-10T00:18:37;24.15;;;21.67;;
17369;SDS011;8802;52.402;4.920;2023-05-10T00:21:04;24.60;;;22.25;;
17369;SDS011;8802;52.402;4.920;2023-05-10T00:23:31;22.52;;;20.48;;
17369;SDS011;8802;52.402;4.920;2023-05-10T00:25:58;24.10;;;21.80;;
17369;SDS011;8802;52.402;4.920;2023-05-10T00:28:24;24.48;;;21.98;;
17369;SDS011;8802;52.402;4.920;2023-05-10T00:30:54;23.70;;;21.35;;
17369;SDS011;8802;52.402;4.920;2023-05-10T00:33:21;23.67;;;21.48;;
17369;SDS011;8802;52.402;4.920;2023-05-10T00:35:48;25.83;;;23.00;;
17369;SDS011;8802;52.402;4.920;2023-05-10T00:38:15;23.10;;;20.92;;
17369;SDS011;8802;52.402;4.920;2023-05-10T00:40:42;23.85;;;21.60;;
17369;SDS011;8802;52.402;4.920;2023-05-10T00:43:09;25.58;;;23.05;;
17369;SDS011;8802;52.402;4.920;2023-05-10T00:45:35;25.98;;;23.48;;
17369;SDS011;8802;52.402;4.920;2023-05-10T00:48:05;24.50;;;22.25;;
17369;SDS011;8802;52.402;4.920;2023-05-10T00:50:32;25.63;;;23.13;;
17369;SDS011;8802;52.402;4.920;2023-05-10T00:52:59;25.90;;;23.15;;
17369;SDS011;8802;52.402;4.920;2023-05-10T00:55:28;25.13;;;22.45;;
17369;SDS011;8802;52.402;4.920;2023-05-10T00:57:55;27.30;;;24.55;;
17369;SDS011;8802;52.402;4.920;2023-05-10T01:00:22;23.88;;;21.58;;
17369;SDS011;8802;52.402;4.920;2023-05-10T01:02:49;24.98;;;22.45;;
17369;SDS011;8802;52.402;4.920;2023-05-10T01:05:17;26.00;;;23.40;;
17369;SDS011;8802;52.402;4.920;2023-05-10T01:07:44;26.55;;;24.13;;
17369;SDS011;8802;52.402;4.920;2023-05-10T01:10:11;28.15;;;25.08;;
17369;SDS011;8802;52.402;4.920;2023-05-10T01:12:39;25.98;;;23.27;;
17369;SDS011;8802;52.402;4.920;2023-05-10T01:15:08;28.17;;;25.48;;
17369;SDS011;8802;52.402;4.920;2023-05-10T01:17:37;26.23;;;23.73;;
17369;SDS011;8802;52.402;4.920;2023-05-10T01:20:06;27.83;;;25.15;;
17369;SDS011;8802;52.402;4.920;2023-05-10T01:22:49;27.08;;;24.58;;
17369;SDS011;8802;52.402;4.920;2023-05-10T01:25:58;24.77;;;22.38;;
17369;SDS011;8802;52.402;4.920;2023-05-10T01:31:54;25.95;;;23.38;;
17369;SDS011;8802;52.402;4.920;2023-05-10T01:34:32;25.65;;;23.05;;
17369;SDS011;8802;52.402;4.920;2023-05-10T01:37:02;26.33;;;23.65;;
17369;SDS011;8802;52.402;4.920;2023-05-10T01:39:36;27.45;;;24.75;;
17369;SDS011;8802;52.402;4.920;2023-05-10T01:42:09;25.55;;;23.05;;
17369;SDS011;8802;52.402;4.920;2023-05-10T01:44:39;25.25;;;22.65;;
17369;SDS011;8802;52.402;4.920;2023-05-10T01:47:14;26.58;;;23.90;;
17369;SDS011;8802;52.402;4.920;2023-05-10T01:49:47;27.05;;;24.38;;
17369;SDS011;8802;52.402;4.920;2023-05-10T01:52:17;25.40;;;22.95;;
17369;SDS011;8802;52.402;4.920;2023-05-10T01:54:48;24.80;;;22.48;;
17369;SDS011;8802;52.402;4.920;2023-05-10T01:57:19;27.42;;;24.73;;
17369;SDS011;8802;52.402;4.920;2023-05-10T01:59:49;28.15;;;25.35;;
17369;SDS011;8802;52.402;4.920;2023-05-10T02:02:18;25.08;;;22.58;;
17369;SDS011;8802;52.402;4.920;2023-05-10T02:04:47;28.15;;;25.40;;
17369;SDS011;8802;52.402;4.920;2023-05-10T02:07:16;28.42;;;25.65;;
17369;SDS011;8802;52.402;4.920;2023-05-10T02:09:44;31.05;;;27.88;;
17369;SDS011;8802;52.402;4.920;2023-05-10T02:12:13;29.63;;;26.45;;
17369;SDS011;8802;52.402;4.920;2023-05-10T02:14:40;26.50;;;23.80;;
17369;SDS011;8802;52.402;4.920;2023-05-10T02:17:08;27.25;;;24.38;;
17369;SDS011;8802;52.402;4.920;2023-05-10T02:19:38;30.88;;;27.58;;
17369;SDS011;8802;52.402;4.920;2023-05-10T02:22:07;32.45;;;28.98;;
17369;SDS011;8802;52.402;4.920;2023-05-10T02:24:35;31.35;;;28.02;;
17369;SDS011;8802;52.402;4.920;2023-05-10T02:27:03;30.80;;;27.60;;
17369;SDS011;8802;52.402;4.920;2023-05-10T02:29:32;33.20;;;29.63;;
17369;SDS011;8802;52.402;4.920;2023-05-10T02:32:00;30.02;;;26.92;;
17369;SDS011;8802;52.402;4.920;2023-05-10T02:34:28;32.03;;;28.30;;
17369;SDS011;8802;52.402;4.920;2023-05-10T02:36:58;32.80;;;28.92;;
17369;SDS011;8802;52.402;4.920;2023-05-10T02:39:27;32.63;;;28.50;;
17369;SDS011;8802;52.402;4.920;2023-05-10T02:41:55;32.55;;;27.27;;
17369;SDS011;8802;52.402;4.920;2023-05-10T02:44:23;33.83;;;28.40;;
17369;SDS011;8802;52.402;4.920;2023-05-10T02:46:56;37.92;;;29.85;;
17369;SDS011;8802;52.402;4.920;2023-05-10T02:49:23;33.42;;;28.30;;
17369;SDS011;8802;52.402;4.920;2023-05-10T02:51:50;31.63;;;28.25;;
17369;SDS011;8802;52.402;4.920;2023-05-10T02:54:24;34.97;;;29.45;;
17369;SDS011;8802;52.402;4.920;2023-05-10T02:56:56;31.58;;;28.15;;
17369;SDS011;8802;52.402;4.920;2023-05-10T02:59:25;33.10;;;28.77;;
17369;SDS011;8802;52.402;4.920;2023-05-10T03:01:52;31.20;;;26.48;;
17369;SDS011;8802;52.402;4.920;2023-05-10T03:04:19;33.22;;;26.05;;
17369;SDS011;8802;52.402;4.920;2023-05-10T03:06:46;27.73;;;24.33;;
17369;SDS011;8802;52.402;4.920;2023-05-10T03:09:13;30.45;;;25.90;;
17369;SDS011;8802;52.402;4.920;2023-05-10T03:11:47;31.73;;;26.52;;
17369;SDS011;8802;52.402;4.920;2023-05-10T03:14:21;30.33;;;24.77;;
17369;SDS011;8802;52.402;4.920;2023-05-10T03:17:02;31.83;;;25.23;;
17369;SDS011;8802;52.402;4.920;2023-05-10T03:19:37;35.50;;;27.10;;
17369;SDS011;8802;52.402;4.920;2023-05-10T03:22:10;32.50;;;24.13;;
17369;SDS011;8802;52.402;4.920;2023-05-10T03:24:39;30.73;;;23.58;;
17369;SDS011;8802;52.402;4.920;2023-05-10T03:27:09;34.53;;;24.70;;
17369;SDS011;8802;52.402;4.920;2023-05-10T03:29:37;37.38;;;26.15;;
17369;SDS011;8802;52.402;4.920;2023-05-10T03:32:05;32.75;;;23.95;;
17369;SDS011;8802;52.402;4.920;2023-05-10T03:34:32;37.17;;;24.88;;
17369;SDS011;8802;52.402;4.920;2023-05-10T03:36:59;31.52;;;22.85;;
17369;SDS011;8802;52.402;4.920;2023-05-10T03:39:26;27.38;;;20.48;;
17369;SDS011;8802;52.402;4.920;2023-05-10T03:41:53;23.70;;;18.58;;
17369;SDS011;8802;52.402;4.920;2023-05-10T03:44:21;20.08;;;17.25;;
17369;SDS011;8802;52.402;4.920;2023-05-10T03:46:48;19.27;;;17.00;;
17369;SDS011;8802;52.402;4.920;2023-05-10T03:49:14;18.52;;;15.80;;
17369;SDS011;8802;52.402;4.920;2023-05-10T03:51:41;19.27;;;15.38;;
17369;SDS011;8802;52.402;4.920;2023-05-10T03:54:08;19.67;;;16.50;;
17369;SDS011;8802;52.402;4.920;2023-05-10T03:56:35;17.45;;;15.55;;
17369;SDS011;8802;52.402;4.920;2023-05-10T03:59:02;17.27;;;15.48;;
17369;SDS011;8802;52.402;4.920;2023-05-10T04:01:33;18.58;;;16.33;;
17369;SDS011;8802;52.402;4.920;2023-05-10T04:04:00;17.23;;;14.07;;
17369;SDS011;8802;52.402;4.920;2023-05-10T04:06:27;19.02;;;16.40;;
17369;SDS011;8802;52.402;4.920;2023-05-10T04:08:54;18.63;;;16.70;;
17369;SDS011;8802;52.402;4.920;2023-05-10T04:11:21;18.33;;;16.48;;
17369;SDS011;8802;52.402;4.920;2023-05-10T04:13:49;19.50;;;17.08;;
17369;SDS011;8802;52.402;4.920;2023-05-10T04:16:16;22.92;;;18.75;;
17369;SDS011;8802;52.402;4.920;2023-05-10T04:18:44;21.65;;;19.25;;
17369;SDS011;8802;52.402;4.920;2023-05-10T04:21:11;19.08;;;16.40;;
17369;SDS011;8802;52.402;4.920;2023-05-10T04:23:38;15.90;;;14.07;;
17369;SDS011;8802;52.402;4.920;2023-05-10T04:26:05;17.27;;;15.48;;
17369;SDS011;8802;52.402;4.920;2023-05-10T04:28:32;15.65;;;13.63;;
17369;SDS011;8802;52.402;4.920;2023-05-10T04:31:02;15.68;;;13.70;;
17369;SDS011;8802;52.402;4.920;2023-05-10T04:33:30;15.95;;;14.25;;
17369;SDS011;8802;52.402;4.920;2023-05-10T04:35:58;15.50;;;14.00;;
17369;SDS011;8802;52.402;4.920;2023-05-10T04:38:25;17.33;;;15.52;;
17369;SDS011;8802;52.402;4.920;2023-05-10T04:40:53;18.30;;;16.38;;
17369;SDS011;8802;52.402;4.920;2023-05-10T04:43:20;19.75;;;17.33;;
17369;SDS011;8802;52.402;4.920;2023-05-10T04:45:47;19.95;;;17.80;;
17369;SDS011;8802;52.402;4.920;2023-05-10T04:48:15;21.02;;;17.40;;
17369;SDS011;8802;52.402;4.920;2023-05-10T04:50:42;20.45;;;17.00;;
17369;SDS011;8802;52.402;4.920;2023-05-10T04:53:10;18.67;;;16.67;;
17369;SDS011;8802;52.402;4.920;2023-05-10T04:55:37;24.58;;;19.58;;
17369;SDS011;8802;52.402;4.920;2023-05-10T04:58:03;25.55;;;20.45;;
17369;SDS011;8802;52.402;4.920;2023-05-10T05:00:30;26.27;;;19.25;;
17369;SDS011;8802;52.402;4.920;2023-05-10T05:02:57;24.67;;;20.63;;
17369;SDS011;8802;52.402;4.920;2023-05-10T05:05:24;28.08;;;21.80;;
17369;SDS011;8802;52.402;4.920;2023-05-10T05:07:51;27.35;;;21.33;;
17369;SDS011;8802;52.402;4.920;2023-05-10T05:10:19;25.90;;;21.70;;
17369;SDS011;8802;52.402;4.920;2023-05-10T05:12:46;30.40;;;24.02;;
17369;SDS011;8802;52.402;4.920;2023-05-10T05:15:12;28.88;;;22.35;;
17369;SDS011;8802;52.402;4.920;2023-05-10T05:17:41;28.15;;;22.45;;
17369;SDS011;8802;52.402;4.920;2023-05-10T05:20:08;28.27;;;22.45;;
17369;SDS011;8802;52.402;4.920;2023-05-10T05:22:36;25.73;;;22.60;;
17369;SDS011;8802;52.402;4.920;2023-05-10T05:25:03;29.50;;;22.48;;
17369;SDS011;8802;52.402;4.920;2023-05-10T05:27:32;23.50;;;21.00;;
17369;SDS011;8802;52.402;4.920;2023-05-10T05:29:59;28.30;;;20.48;;
17369;SDS011;8802;52.402;4.920;2023-05-10T05:32:26;23.38;;;20.42;;
17369;SDS011;8802;52.402;4.920;2023-05-10T05:34:52;24.95;;;20.23;;
17369;SDS011;8802;52.402;4.920;2023-05-10T05:37:20;22.23;;;19.23;;
17369;SDS011;8802;52.402;4.920;2023-05-10T05:39:47;20.05;;;18.00;;
17369;SDS011;8802;52.402;4.920;2023-05-10T05:42:14;17.85;;;15.32;;
17369;SDS011;8802;52.402;4.920;2023-05-10T05:44:45;21.20;;;16.08;;
17369;SDS011;8802;52.402;4.920;2023-05-10T05:47:11;17.50;;;15.43;;
17369;SDS011;8802;52.402;4.920;2023-05-10T05:49:38;29.65;;;16.25;;
17369;SDS011;8802;52.402;4.920;2023-05-10T05:52:05;18.65;;;16.70;;
17369;SDS011;8802;52.402;4.920;2023-05-10T05:54:32;17.90;;;15.63;;
17369;SDS011;8802;52.402;4.920;2023-05-10T05:56:59;21.50;;;17.95;;
17369;SDS011;8802;52.402;4.920;2023-05-10T05:59:26;21.75;;;16.52;;
17369;SDS011;8802;52.402;4.920;2023-05-10T06:01:55;21.60;;;17.40;;
17369;SDS011;8802;52.402;4.920;2023-05-10T06:04:22;18.27;;;15.60;;
17369;SDS011;8802;52.402;4.920;2023-05-10T06:06:48;20.38;;;17.08;;
17369;SDS011;8802;52.402;4.920;2023-05-10T06:09:15;19.35;;;16.50;;
17369;SDS011;8802;52.402;4.920;2023-05-10T06:11:42;18.17;;;16.27;;
17369;SDS011;8802;52.402;4.920;2023-05-10T06:14:09;18.83;;;15.27;;
17369;SDS011;8802;52.402;4.920;2023-05-10T06:16:36;15.88;;;14.27;;
17369;SDS011;8802;52.402;4.920;2023-05-10T06:19:04;14.90;;;13.07;;
17369;SDS011;8802;52.402;4.920;2023-05-10T06:21:31;17.65;;;14.25;;
17369;SDS011;8802;52.402;4.920;2023-05-10T06:23:58;15.38;;;13.77;;
17369;SDS011;8802;52.402;4.920;2023-05-10T06:26:25;15.43;;;13.90;;
17369;SDS011;8802;52.402;4.920;2023-05-10T06:28:51;16.67;;;14.65;;
17369;SDS011;8802;52.402;4.920;2023-05-10T06:31:18;15.15;;;13.48;;
17369;SDS011;8802;52.402;4.920;2023-05-10T06:33:45;17.15;;;14.73;;
17369;SDS011;8802;52.402;4.920;2023-05-10T06:36:14;14.77;;;13.27;;
17369;SDS011;8802;52.402;4.920;2023-05-10T06:38:40;14.63;;;13.20;;
17369;SDS011;8802;52.402;4.920;2023-05-10T06:41:07;15.30;;;13.70;;
17369;SDS011;8802;52.402;4.920;2023-05-10T06:43:34;14.10;;;12.43;;
17369;SDS011;8802;52.402;4.920;2023-05-10T06:46:04;15.35;;;13.02;;
17369;SDS011;8802;52.402;4.920;2023-05-10T06:48:31;15.20;;;13.70;;
17369;SDS011;8802;52.402;4.920;2023-05-10T06:51:00;14.05;;;12.07;;
17369;SDS011;8802;52.402;4.920;2023-05-10T06:53:28;14.07;;;12.10;;
17369;SDS011;8802;52.402;4.920;2023-05-10T06:55:55;14.73;;;12.50;;
17369;SDS011;8802;52.402;4.920;2023-05-10T06:58:22;14.13;;;12.60;;
17369;SDS011;8802;52.402;4.920;2023-05-10T07:00:49;13.93;;;12.45;;
17369;SDS011;8802;52.402;4.920;2023-05-10T07:03:16;12.75;;;11.35;;
17369;SDS011;8802;52.402;4.920;2023-05-10T07:05:43;12.43;;;11.23;;
17369;SDS011;8802;52.402;4.920;2023-05-10T07:08:09;13.25;;;11.95;;
17369;SDS011;8802;52.402;4.920;2023-05-10T07:10:38;16.98;;;13.55;;
17369;SDS011;8802;52.402;4.920;2023-05-10T07:13:04;14.50;;;12.93;;
17369;SDS011;8802;52.402;4.920;2023-05-10T07:15:31;16.10;;;14.40;;
17369;SDS011;8802;52.402;4.920;2023-05-10T07:17:58;15.02;;;13.52;;
17369;SDS011;8802;52.402;4.920;2023-05-10T07:20:25;15.55;;;12.65;;
17369;SDS011;8802;52.402;4.920;2023-05-10T07:22:52;15.00;;;13.15;;
17369;SDS011;8802;52.402;4.920;2023-05-10T07:25:19;13.95;;;12.63;;
17369;SDS011;8802;52.402;4.920;2023-05-10T07:27:47;14.73;;;12.10;;
17369;SDS011;8802;52.402;4.920;2023-05-10T07:30:14;15.43;;;13.93;;
17369;SDS011;8802;52.402;4.920;2023-05-10T07:32:41;18.05;;;16.08;;
17369;SDS011;8802;52.402;4.920;2023-05-10T07:35:08;17.58;;;15.75;;
17369;SDS011;8802;52.402;4.920;2023-05-10T07:37:35;17.80;;;15.90;;
17369;SDS011;8802;52.402;4.920;2023-05-10T07:40:02;18.90;;;17.20;;
17369;SDS011;8802;52.402;4.920;2023-05-10T07:42:29;19.20;;;17.20;;
17369;SDS011;8802;52.402;4.920;2023-05-10T07:44:57;19.23;;;17.40;;
17369;SDS011;8802;52.402;4.920;2023-05-10T07:47:24;18.65;;;16.52;;
17369;SDS011;8802;52.402;4.920;2023-05-10T07:49:51;20.02;;;17.55;;
17369;SDS011;8802;52.402;4.920;2023-05-10T07:52:18;18.10;;;16.38;;
17369;SDS011;8802;52.402;4.920;2023-05-10T07:54:45;18.17;;;16.50;;
17369;SDS011;8802;52.402;4.920;2023-05-10T07:57:11;18.55;;;15.95;;
17369;SDS011;8802;52.402;4.920;2023-05-10T07:59:42;15.18;;;13.77;;
17369;SDS011;8802;52.402;4.920;2023-05-10T08:02:10;14.05;;;12.75;;
17369;SDS011;8802;52.402;4.920;2023-05-10T08:04:37;15.65;;;14.20;;
17369;SDS011;8802;52.402;4.920;2023-05-10T08:07:04;14.82;;;13.40;;
17369;SDS011;8802;52.402;4.920;2023-05-10T08:09:31;14.48;;;13.02;;
17369;SDS011;8802;52.402;4.920;2023-05-10T08:11:58;14.93;;;13.43;;
17369;SDS011;8802;52.402;4.920;2023-05-10T08:14:25;13.27;;;11.98;;
17369;SDS011;8802;52.402;4.920;2023-05-10T08:16:53;12.48;;;11.20;;
17369;SDS011;8802;52.402;4.920;2023-05-10T08:19:21;12.25;;;10.95;;
17369;SDS011;8802;52.402;4.920;2023-05-10T08:21:48;13.57;;;12.25;;
17369;SDS011;8802;52.402;4.920;2023-05-10T08:24:15;13.15;;;11.95;;
17369;SDS011;8802;52.402;4.920;2023-05-10T08:26:42;13.30;;;12.10;;
17369;SDS011;8802;52.402;4.920;2023-05-10T08:29:09;14.20;;;12.77;;
17369;SDS011;8802;52.402;4.920;2023-05-10T08:31:36;13.15;;;11.75;;
17369;SDS011;8802;52.402;4.920;2023-05-10T08:34:03;11.93;;;10.80;;
17369;SDS011;8802;52.402;4.920;2023-05-10T08:36:31;11.27;;;10.32;;
17369;SDS011;8802;52.402;4.920;2023-05-10T08:38:58;11.73;;;10.60;;
17369;SDS011;8802;52.402;4.920;2023-05-10T08:41:25;11.70;;;10.50;;
17369;SDS011;8802;52.402;4.920;2023-05-10T08:43:52;11.63;;;10.50;;
17369;SDS011;8802;52.402;4.920;2023-05-10T08:46:20;11.98;;;10.77;;
17369;SDS011;8802;52.402;4.920;2023-05-10T08:48:48;12.68;;;11.38;;
17369;SDS011;8802;52.402;4.920;2023-05-10T08:51:17;12.13;;;10.98;;
17369;SDS011;8802;52.402;4.920;2023-05-10T08:53:47;10.32;;;9.38;;
17369;SDS011;8802;52.402;4.920;2023-05-10T08:56:14;11.40;;;10.30;;
17369;SDS011;8802;52.402;4.920;2023-05-10T08:58:42;10.73;;;9.55;;
17369;SDS011;8802;52.402;4.920;2023-05-10T09:01:10;9.63;;;8.77;;
17369;SDS011;8802;52.402;4.920;2023-05-10T09:03:38;11.95;;;10.75;;
17369;SDS011;8802;52.402;4.920;2023-05-10T09:06:06;12.60;;;11.30;;
17369;SDS011;8802;52.402;4.920;2023-05-10T09:08:33;13.15;;;11.90;;
17369;SDS011;8802;52.402;4.920;2023-05-10T09:11:01;13.13;;;11.90;;
17369;SDS011;8802;52.402;4.920;2023-05-10T09:13:28;11.73;;;10.73;;
17369;SDS011;8802;52.402;4.920;2023-05-10T09:15:56;12.73;;;11.52;;
17369;SDS011;8802;52.402;4.920;2023-05-10T09:18:23;15.18;;;13.57;;
17369;SDS011;8802;52.402;4.920;2023-05-10T09:20:50;13.55;;;12.23;;
17369;SDS011;8802;52.402;4.920;2023-05-10T09:23:17;12.25;;;11.07;;
17369;SDS011;8802;52.402;4.920;2023-05-10T09:25:44;11.93;;;10.70;;
17369;SDS011;8802;52.402;4.920;2023-05-10T09:28:13;9.25;;;8.15;;
17369;SDS011;8802;52.402;4.920;2023-05-10T09:30:40;7.95;;;7.20;;
17369;SDS011;8802;52.402;4.920;2023-05-10T09:33:07;9.65;;;7.20;;
17369;SDS011;8802;52.402;4.920;2023-05-10T09:35:34;8.90;;;7.65;;
17369;SDS011;8802;52.402;4.920;2023-05-10T09:38:03;9.35;;;8.00;;
17369;SDS011;8802;52.402;4.920;2023-05-10T09:40:31;8.30;;;7.38;;
17369;SDS011;8802;52.402;4.920;2023-05-10T09:42:58;8.85;;;7.95;;
17369;SDS011;8802;52.402;4.920;2023-05-10T09:45:28;8.07;;;7.28;;
17369;SDS011;8802;52.402;4.920;2023-05-10T09:47:56;7.50;;;6.80;;
17369;SDS011;8802;52.402;4.920;2023-05-10T09:50:24;9.40;;;6.97;;
17369;SDS011;8802;52.402;4.920;2023-05-10T09:52:53;8.65;;;6.88;;
17369;SDS011;8802;52.402;4.920;2023-05-10T09:55:23;7.97;;;7.18;;
17369;SDS011;8802;52.402;4.920;2023-05-10T09:57:58;8.20;;;6.57;;
17369;SDS011;8802;52.402;4.920;2023-05-10T10:00:25;8.52;;;6.85;;
17369;SDS011;8802;52.402;4.920;2023-05-10T10:02:55;6.88;;;6.20;;
17369;SDS011;8802;52.402;4.920;2023-05-10T10:05:27;8.43;;;6.10;;
17369;SDS011;8802;52.402;4.920;2023-05-10T10:07:55;7.80;;;7.10;;
17369;SDS011;8802;52.402;4.920;2023-05-10T10:10:22;6.50;;;5.90;;
17369;SDS011;8802;52.402;4.920;2023-05-10T10:12:50;6.55;;;5.60;;
17369;SDS011;8802;52.402;4.920;2023-05-10T10:15:18;6.18;;;5.57;;
17369;SDS011;8802;52.402;4.920;2023-05-10T10:17:48;7.90;;;6.22;;
17369;SDS011;8802;52.402;4.920;2023-05-10T10:20:15;6.38;;;5.20;;
17369;SDS011;8802;52.402;4.920;2023-05-10T10:22:43;7.30;;;6.00;;
17369;SDS011;8802;52.402;4.920;2023-05-10T10:25:11;5.45;;;4.85;;
17369;SDS011;8802;52.402;4.920;2023-05-10T10:27:42;5.97;;;4.97;;
17369;SDS011;8802;52.402;4.920;2023-05-10T10:30:17;6.47;;;4.90;;
17369;SDS011;8802;52.402;4.920;2023-05-10T10:33:17;5.00;;;4.50;;
17369;SDS011;8802;52.402;4.920;2023-05-10T10:36:04;6.13;;;5.63;;
17369;SDS011;8802;52.402;4.920;2023-05-10T10:38:41;6.05;;;4.82;;
17369;SDS011;8802;52.402;4.920;2023-05-10T10:41:28;5.85;;;4.53;;
17369;SDS011;8802;52.402;4.920;2023-05-10T10:46:58;3.72;;;3.30;;
17369;SDS011;8802;52.402;4.920;2023-05-10T10:49:27;5.35;;;4.85;;
17369;SDS011;8802;52.402;4.920;2023-05-10T10:52:13;8.15;;;5.60;;
17369;SDS011;8802;52.402;4.920;2023-05-10T10:54:41;5.93;;;4.97;;
17369;SDS011;8802;52.402;4.920;2023-05-10T10:57:13;4.97;;;4.38;;
17369;SDS011;8802;52.402;4.920;2023-05-10T10:59:43;4.45;;;4.05;;
17369;SDS011;8802;52.402;4.920;2023-05-10T11:02:17;4.13;;;3.78;;
17369;SDS011;8802;52.402;4.920;2023-05-10T11:05:01;4.90;;;3.85;;
17369;SDS011;8802;52.402;4.920;2023-05-10T11:08:10;5.45;;;4.60;;
17369;SDS011;8802;52.402;4.920;2023-05-10T11:10:51;6.85;;;4.60;;
17369;SDS011;8802;52.402;4.920;2023-05-10T11:13:30;6.60;;;4.88;;
17369;SDS011;8802;52.402;4.920;2023-05-10T11:15:58;8.48;;;6.68;;
17369;SDS011;8802;52.402;4.920;2023-05-10T11:18:35;7.13;;;6.22;;
17369;SDS011;8802;52.402;4.920;2023-05-10T11:21:05;7.18;;;5.70;;
17369;SDS011;8802;52.402;4.920;2023-05-10T11:23:47;7.53;;;6.75;;
17369;SDS011;8802;52.402;4.920;2023-05-10T11:26:15;8.35;;;7.38;;
17369;SDS011;8802;52.402;4.920;2023-05-10T11:28:43;10.05;;;6.68;;
17369;SDS011;8802;52.402;4.920;2023-05-10T11:31:10;8.23;;;7.43;;
17369;SDS011;8802;52.402;4.920;2023-05-10T11:33:42;11.45;;;8.88;;
17369;SDS011;8802;52.402;4.920;2023-05-10T11:36:12;10.68;;;8.75;;
17369;SDS011;8802;52.402;4.920;2023-05-10T11:38:40;12.13;;;9.02;;
17369;SDS011;8802;52.402;4.920;2023-05-10T11:41:08;12.68;;;10.07;;
17369;SDS011;8802;52.402;4.920;2023-05-10T11:43:36;13.18;;;9.93;;
17369;SDS011;8802;52.402;4.920;2023-05-10T11:46:04;13.57;;;10.50;;
17369;SDS011;8802;52.402;4.920;2023-05-10T11:48:32;11.90;;;10.65;;
17369;SDS011;8802;52.402;4.920;2023-05-10T11:51:00;12.68;;;9.55;;
17369;SDS011;8802;52.402;4.920;2023-05-10T11:53:28;11.27;;;9.90;;
17369;SDS011;8802;52.402;4.920;2023-05-10T11:56:02;11.23;;;9.48;;
17369;SDS011;8802;52.402;4.920;2023-05-10T11:58:30;11.48;;;8.57;;
17369;SDS011;8802;52.402;4.920;2023-05-10T12:00:57;11.15;;;8.82;;
17369;SDS011;8802;52.402;4.920;2023-05-10T12:03:24;10.50;;;8.73;;
17369;SDS011;8802;52.402;4.920;2023-05-10T12:05:51;10.73;;;8.27;;
17369;SDS011;8802;52.402;4.920;2023-05-10T12:08:20;11.45;;;10.18;;
17369;SDS011;8802;52.402;4.920;2023-05-10T12:10:49;10.82;;;8.93;;
17369;SDS011;8802;52.402;4.920;2023-05-10T12:13:16;14.10;;;9.45;;
17369;SDS011;8802;52.402;4.920;2023-05-10T12:15:43;11.35;;;9.27;;
17369;SDS011;8802;52.402;4.920;2023-05-10T12:18:10;11.60;;;10.15;;
17369;SDS011;8802;52.402;4.920;2023-05-10T12:20:38;11.93;;;9.57;;
17369;SDS011;8802;52.402;4.920;2023-05-10T12:23:07;9.18;;;8.20;;
17369;SDS011;8802;52.402;4.920;2023-05-10T12:25:36;8.80;;;7.85;;
17369;SDS011;8802;52.402;4.920;2023-05-10T12:28:05;6.13;;;5.35;;
17369;SDS011;8802;52.402;4.920;2023-05-10T12:30:35;5.25;;;4.57;;
17369;SDS011;8802;52.402;4.920;2023-05-10T12:33:07;7.05;;;4.78;;
17369;SDS011;8802;52.402;4.920;2023-05-10T12:35:43;5.50;;;5.00;;
17369;SDS011;8802;52.402;4.920;2023-05-10T12:38:26;6.25;;;4.85;;
17369;SDS011;8802;52.402;4.920;2023-05-10T12:40:55;6.22;;;5.63;;
17369;SDS011;8802;52.402;4.920;2023-05-10T12:43:24;7.07;;;5.93;;
17369;SDS011;8802;52.402;4.920;2023-05-10T12:45:51;6.97;;;6.28;;
17369;SDS011;8802;52.402;4.920;2023-05-10T12:48:18;8.50;;;5.63;;
17369;SDS011;8802;52.402;4.920;2023-05-10T12:50:45;6.40;;;5.78;;
17369;SDS011;8802;52.402;4.920;2023-05-10T12:53:12;5.07;;;4.53;;
17369;SDS011;8802;52.402;4.920;2023-05-10T12:55:40;5.40;;;4.90;;
17369;SDS011;8802;52.402;4.920;2023-05-10T12:58:07;5.13;;;4.63;;
17369;SDS011;8802;52.402;4.920;2023-05-10T13:00:35;4.38;;;3.97;;
17369;SDS011;8802;52.402;4.920;2023-05-10T13:03:03;3.78;;;2.83;;
17369;SDS011;8802;52.402;4.920;2023-05-10T13:05:30;4.85;;;4.13;;
17369;SDS011;8802;52.402;4.920;2023-05-10T13:07:57;4.88;;;3.72;;
17369;SDS011;8802;52.402;4.920;2023-05-10T13:10:24;6.55;;;3.92;;
17369;SDS011;8802;52.402;4.920;2023-05-10T13:12:51;6.63;;;4.20;;
17369;SDS011;8802;52.402;4.920;2023-05-10T13:15:18;5.13;;;4.32;;
17369;SDS011;8802;52.402;4.920;2023-05-10T13:17:46;6.53;;;4.72;;
17369;SDS011;8802;52.402;4.920;2023-05-10T13:20:13;7.05;;;6.38;;
17369;SDS011;8802;52.402;4.920;2023-05-10T13:22:40;5.40;;;4.90;;
17369;SDS011;8802;52.402;4.920;2023-05-10T13:25:07;5.72;;;5.15;;
17369;SDS011;8802;52.402;4.920;2023-05-10T13:27:35;5.40;;;4.90;;
17369;SDS011;8802;52.402;4.920;2023-05-10T13:30:01;6.97;;;5.32;;
17369;SDS011;8802;52.402;4.920;2023-05-10T13:32:29;7.95;;;5.50;;
17369;SDS011;8802;52.402;4.920;2023-05-10T13:34:57;4.78;;;4.35;;
17369;SDS011;8802;52.402;4.920;2023-05-10T13:37:24;5.93;;;5.20;;
17369;SDS011;8802;52.402;4.920;2023-05-10T13:39:51;8.15;;;5.53;;
17369;SDS011;8802;52.402;4.920;2023-05-10T13:42:18;7.20;;;6.30;;
17369;SDS011;8802;52.402;4.920;2023-05-10T13:44:45;5.82;;;5.20;;
17369;SDS011;8802;52.402;4.920;2023-05-10T13:47:12;7.82;;;5.82;;
17369;SDS011;8802;52.402;4.920;2023-05-10T13:49:39;6.50;;;5.90;;
17369;SDS011;8802;52.402;4.920;2023-05-10T13:52:07;6.63;;;6.03;;
17369;SDS011;8802;52.402;4.920;2023-05-10T13:54:35;7.03;;;5.82;;
17369;SDS011;8802;52.402;4.920;2023-05-10T13:57:02;7.88;;;7.05;;
17369;SDS011;8802;52.402;4.920;2023-05-10T13:59:29;7.38;;;6.70;;
17369;SDS011;8802;52.402;4.920;2023-05-10T14:01:57;9.32;;;8.02;;
17369;SDS011;8802;52.402;4.920;2023-05-10T14:04:24;8.48;;;6.10;;
17369;SDS011;8802;52.402;4.920;2023-05-10T14:06:51;6.65;;;5.93;;
17369;SDS011;8802;52.402;4.920;2023-05-10T14:09:20;7.47;;;6.78;;
17369;SDS011;8802;52.402;4.920;2023-05-10T14:11:46;7.88;;;6.80;;
17369;SDS011;8802;52.402;4.920;2023-05-10T14:14:13;6.07;;;5.50;;
17369;SDS011;8802;52.402;4.920;2023-05-10T14:16:41;6.88;;;5.25;;
17369;SDS011;8802;52.402;4.920;2023-05-10T14:19:09;5.10;;;4.60;;
17369;SDS011;8802;52.402;4.920;2023-05-10T14:21:36;5.25;;;4.65;;
17369;SDS011;8802;52.402;4.920;2023-05-10T14:24:03;5.95;;;4.50;;
17369;SDS011;8802;52.402;4.920;2023-05-10T14:26:33;6.00;;;5.00;;
17369;SDS011;8802;52.402;4.920;2023-05-10T14:29:00;7.15;;;4.30;;
17369;SDS011;8802;52.402;4.920;2023-05-10T14:31:27;4.63;;;3.30;;
17369;SDS011;8802;52.402;4.920;2023-05-10T14:33:55;4.45;;;3.95;;
17369;SDS011;8802;52.402;4.920;2023-05-10T14:36:22;5.35;;;4.35;;
17369;SDS011;8802;52.402;4.920;2023-05-10T14:38:49;5.13;;;3.85;;
17369;SDS011;8802;52.402;4.920;2023-05-10T14:41:17;3.50;;;2.63;;
17369;SDS011;8802;52.402;4.920;2023-05-10T14:43:45;2.92;;;2.20;;
17369;SDS011;8802;52.402;4.920;2023-05-10T14:46:12;1.90;;;1.73;;
17369;SDS011;8802;52.402;4.920;2023-05-10T14:48:39;3.75;;;3.40;;
17369;SDS011;8802;52.402;4.920;2023-05-10T14:51:06;4.10;;;3.63;;
17369;SDS011;8802;52.402;4.920;2023-05-10T14:53:33;5.40;;;4.90;;
17369;SDS011;8802;52.402;4.920;2023-05-10T14:55:59;9.43;;;6.20;;
17369;SDS011;8802;52.402;4.920;2023-05-10T14:58:27;6.82;;;6.13;;